.
WxDataArchive / Data Records for 2006-04-17
2006-04-16 April 2006 2006-04-18

Data Records for Monday, 17 April 2006

Time	Temp	Chill	HIndex	Humid	Dewpt	 Wind 	HiWind	WindDir	Rain 	Barom 
-----	----	-----	------	-----	-----	------	------	-------	-----	----- 
00:00	46.2	42.6	46.2	89	43.1	7	13	112	0.01	29.688 
00:05	46.1	43.0	46.1	90	43.3	6	16	112	0.01	29.688 
00:10	46.0	42.4	46.0	89	42.9	7	14	112	0.01	29.688 
00:15	45.7	41.1	45.7	89	42.6	9	14	112	0.01	29.691 
00:20	45.4	41.6	45.4	89	42.3	7	13	112	0.02	29.691 
00:25	45.2	41.4	45.2	89	42.2	7	14	112	0.02	29.691 
00:30	44.9	41.0	44.9	89	41.9	7	15	112	0.01	29.689 
00:35	44.9	41.0	44.9	90	42.1	7	14	112	0.01	29.689 
00:40	44.8	40.9	44.8	90	42.0	7	13	112	0.01	29.689 
00:45	44.9	41.0	44.9	90	42.1	7	16	112	0.00	29.687 
00:50	45.1	40.8	45.1	89	42.1	8	15	112	0.01	29.687 
00:55	45.1	41.3	45.1	89	42.1	7	20	112	0.02	29.687 
01:00	45.2	41.4	45.2	89	42.2	7	16	112	0.00	29.677 
01:05	45.2	40.9	45.2	88	41.9	8	15	112	0.01	29.677 
01:10	45.2	41.4	45.2	89	42.2	7	17	112	0.01	29.677 
01:15	45.4	41.6	45.4	89	42.3	7	16	112	0.01	29.675 
01:20	45.4	41.2	45.4	88	42.1	8	17	112	0.01	29.675 
01:25	45.4	42.2	45.4	89	42.3	6	15	90	0.00	29.675 
01:30	45.4	42.2	45.4	89	42.3	6	12	112	0.01	29.675 
01:35	45.5	41.8	45.5	88	42.2	7	15	112	0.00	29.675 
01:40	45.5	41.8	45.5	88	42.2	7	14	112	0.01	29.675 
01:45	45.5	42.3	45.5	89	42.4	6	14	112	0.00	29.675 
01:50	45.5	42.9	45.5	90	42.7	5	14	112	0.01	29.675 
01:55	45.5	42.9	45.5	90	42.7	5	12	112	0.00	29.675 
02:00	45.5	41.8	45.5	90	42.7	7	14	112	0.01	29.667 
02:05	45.7	42.0	45.7	90	42.9	7	15	90	0.00	29.667 
02:10	45.7	43.2	45.7	90	42.9	5	12	112	0.01	29.667 
02:15	45.7	43.2	45.7	90	42.9	5	11	112	0.00	29.660 
02:20	45.8	43.3	45.8	90	43.0	5	11	112	0.00	29.660 
02:25	45.8	43.3	45.8	90	43.0	5	12	112	0.01	29.660 
02:30	46.0	43.5	46.0	89	42.9	5	12	112	0.00	29.668 
02:35	46.0	44.2	46.0	89	42.9	4	11	112	0.00	29.668 
02:40	46.0	43.5	46.0	89	42.9	5	15	112	0.00	29.668 
02:45	46.0	43.5	46.0	89	42.9	5	13	90	0.00	29.670 
02:50	46.0	43.5	46.0	88	42.6	5	10	112	0.00	29.670 
02:55	46.0	44.2	46.0	87	42.4	4	15	112	0.00	29.670 
03:00	45.8	43.3	45.8	87	42.2	5	13	112	0.01	29.668 
03:05	45.7	43.9	45.7	87	42.1	4	11	112	0.00	29.668 
03:10	45.7	43.2	45.7	86	41.8	5	12	112	0.00	29.668 
03:15	45.5	42.9	45.5	86	41.6	5	14	112	0.01	29.664 
03:20	45.4	43.6	45.4	86	41.5	4	13	112	0.00	29.664 
03:25	45.2	42.6	45.2	86	41.3	5	14	90	0.01	29.664 
03:30	45.2	41.4	45.2	85	41.0	7	14	112	0.00	29.669 
03:35	45.2	42.6	45.2	85	41.0	5	13	112	0.00	29.669 
03:40	45.2	42.0	45.2	84	40.7	6	16	112	0.00	29.669 
03:45	45.2	42.0	45.2	84	40.7	6	14	112	0.00	29.671 
03:50	45.2	43.3	45.2	85	41.0	4	11	112	0.00	29.671 
03:55	45.2	42.6	45.2	85	41.0	5	11	90	0.01	29.671 
04:00	45.1	42.5	45.1	85	40.9	5	10	112	0.00	29.671 
04:05	45.2	42.0	45.2	84	40.7	6	12	112	0.00	29.671 
04:10	45.1	42.5	45.1	84	40.6	5	11	112	0.00	29.671 
04:15	45.1	42.5	45.1	84	40.6	5	12	112	0.00	29.673 
04:20	45.1	43.2	45.1	84	40.6	4	10	112	0.00	29.673 
04:25	45.1	43.2	45.1	84	40.6	4	12	90	0.00	29.673 
04:30	45.1	43.2	45.1	83	40.3	4	12	90	0.00	29.676 
04:35	45.1	43.2	45.1	83	40.3	4	12	112	0.00	29.676 
04:40	45.1	42.5	45.1	83	40.3	5	13	112	0.01	29.676 
04:45	45.1	43.2	45.1	83	40.3	4	10	90	0.00	29.679 
04:50	44.9	42.2	44.9	81	39.4	5	11	112	0.00	29.679 
04:55	44.8	42.9	44.8	82	39.6	4	9	90	0.00	29.679 
05:00	44.8	42.9	44.8	81	39.3	4	10	112	0.00	29.680 
05:05	44.6	41.9	44.6	81	39.1	5	13	112	0.00	29.680 
05:10	44.6	41.9	44.6	79	38.5	5	14	112	0.01	29.680 
05:15	44.6	41.2	44.6	78	38.2	6	15	90	0.00	29.679 
05:20	44.6	42.6	44.6	79	38.5	4	12	45	0.00	29.679 
05:25	44.5	42.5	44.5	80	38.7	4	10	112	0.00	29.679 
05:30	44.5	41.8	44.5	78	38.1	5	13	90	0.00	29.681 
05:35	44.5	42.5	44.5	79	38.4	4	9	112	0.00	29.681 
05:40	44.5	42.5	44.5	79	38.4	4	14	112	0.00	29.681 
05:45	44.5	41.1	44.5	78	38.1	6	13	112	0.00	29.684 
05:50	44.5	41.8	44.5	78	38.1	5	12	112	0.00	29.684 
05:55	44.5	42.5	44.5	78	38.1	4	11	112	0.00	29.684 
06:00	44.5	42.5	44.5	78	38.1	4	11	112	0.01	29.691 
06:05	44.6	42.6	44.6	77	37.8	4	9	90	0.00	29.691 
06:10	44.6	44.6	44.6	78	38.2	3	7	112	0.00	29.691 
06:15	44.6	44.6	44.6	78	38.2	2	7	112	0.00	29.697 
06:20	44.8	44.8	44.8	80	39.0	2	6	112	0.00	29.697 
06:25	44.8	44.8	44.8	80	39.0	2	6	112	0.00	29.697 
06:30	44.9	44.9	44.9	80	39.1	2	4	112	0.00	29.707 
06:35	44.9	44.9	44.9	79	38.8	2	7	90	0.00	29.707 
06:40	45.1	45.1	45.1	79	39.0	2	6	68	0.00	29.707 
06:45	45.1	45.1	45.1	79	39.0	2	7	112	0.00	29.717 
06:50	45.2	45.2	45.2	78	38.8	3	11	112	0.00	29.717 
06:55	45.2	45.2	45.2	78	38.8	2	7	90	0.00	29.717 
07:00	45.2	45.2	45.2	78	38.8	3	6	22	0.00	29.727 
07:05	45.2	43.3	45.2	76	38.1	4	10	90	0.00	29.727 
07:10	45.1	43.2	45.1	77	38.3	4	9	90	0.00	29.727 
07:15	45.2	43.3	45.2	76	38.1	4	12	112	0.00	29.734 
07:20	45.2	42.6	45.2	76	38.1	5	13	112	0.00	29.734 
07:25	45.1	45.1	45.1	75	37.7	3	6	112	0.00	29.734 
07:30	45.1	43.2	45.1	75	37.7	4	11	112	0.00	29.741 
07:35	45.1	45.1	45.1	76	38.0	3	7	90	0.00	29.741 
07:40	44.9	44.9	44.9	75	37.5	2	4	22	0.00	29.741 
07:45	44.9	43.0	44.9	74	37.1	4	10	112	0.00	29.745 
07:50	45.1	45.1	45.1	74	37.3	3	15	112	0.00	29.745 
07:55	45.1	43.2	45.1	73	37.0	4	12	112	0.00	29.745 
08:00	45.2	45.2	45.2	73	37.1	3	10	112	0.00	29.752 
08:05	45.2	43.3	45.2	73	37.1	4	7	112	0.00	29.752 
08:10	45.1	43.2	45.1	72	36.6	4	10	112	0.00	29.752 
08:15	45.1	42.5	45.1	73	37.0	5	13	112	0.00	29.760 
08:20	45.1	43.2	45.1	72	36.6	4	11	90	0.00	29.760 
08:25	45.1	42.5	45.1	73	37.0	5	11	112	0.00	29.760 
08:30	45.1	42.5	45.1	72	36.6	5	17	112	0.00	29.763 
08:35	44.9	42.2	44.9	72	36.4	5	12	90	0.00	29.763 
08:40	45.2	45.2	45.2	71	36.4	3	9	90	0.00	29.763 
08:45	45.7	43.2	45.7	71	36.8	5	14	112	0.00	29.767 
08:50	46.1	43.0	46.1	71	37.2	6	13	112	0.00	29.767 
08:55	46.2	43.1	46.2	68	36.2	6	15	112	0.00	29.767 
09:00	46.2	44.5	46.2	70	37.0	4	12	45	0.00	29.777 
09:05	46.4	44.0	46.4	69	36.8	5	12	112	0.00	29.777 
09:10	46.8	43.9	46.8	67	36.4	6	14	90	0.00	29.777 
09:15	47.4	45.9	47.4	66	36.6	4	9	90	0.00	29.780 
09:20	47.7	45.5	47.7	67	37.3	5	20	112	0.00	29.780 
09:25	47.9	45.2	47.9	65	36.7	6	12	45	0.00	29.780 
09:30	48.0	44.8	48.0	66	37.2	7	15	112	0.00	29.783 
09:35	48.5	46.5	48.5	65	37.3	5	15	112	0.00	29.783 
09:40	48.8	46.8	48.8	63	36.8	5	12	90	0.00	29.783 
09:45	48.9	45.9	48.9	63	36.9	7	17	112	0.00	29.783 
09:50	49.2	47.9	49.2	65	37.9	4	15	112	0.00	29.783 
09:55	49.5	47.6	49.5	62	37.0	5	13	90	0.00	29.783 
10:00	49.4	46.5	49.4	61	36.5	7	17	112	0.00	29.788 
10:05	49.4	47.0	49.4	61	36.5	6	15	112	0.00	29.788 
10:10	49.5	46.6	49.5	60	36.2	7	15	112	0.00	29.788 
10:15	49.8	47.4	49.8	59	36.1	6	17	112	0.00	29.797 
10:20	50.2	50.2	50.2	60	36.9	6	17	112	0.00	29.797 
10:25	50.7	50.7	50.7	60	37.3	5	14	112	0.00	29.797 
10:30	51.1	51.1	51.1	58	36.8	6	13	90	0.00	29.795 
10:35	51.0	51.0	51.0	59	37.2	6	15	112	0.00	29.795 
10:40	51.3	51.3	51.3	56	36.1	5	14	45	0.00	29.795 
10:45	51.9	51.9	51.9	58	37.6	6	13	112	0.00	29.798 
10:50	52.0	52.0	52.0	56	36.8	6	16	22	0.00	29.798 
10:55	52.3	52.3	52.3	54	36.2	6	11	112	0.00	29.798 
11:00	52.6	52.6	52.6	54	36.4	5	11	112	0.00	29.799 
11:05	52.6	52.6	52.6	56	37.4	8	17	112	0.00	29.799 
11:10	53.1	53.1	53.1	53	36.4	8	14	112	0.00	29.799 
11:15	53.5	53.5	53.5	54	37.3	5	12	112	0.00	29.809 
11:20	54.1	54.1	54.1	53	37.4	7	13	112	0.00	29.809 
11:25	54.2	54.2	54.2	52	37.0	6	14	112	0.00	29.809 
11:30	54.4	54.4	54.4	54	38.1	6	14	90	0.00	29.810 
11:35	54.7	54.7	54.7	50	36.4	8	15	112	0.00	29.810 
11:40	55.0	55.0	55.0	50	36.7	6	16	90	0.00	29.810 
11:45	55.1	55.1	55.1	50	36.8	6	21	112	0.00	29.815 
11:50	55.6	55.6	55.6	48	36.2	6	14	112	0.00	29.815 
11:55	55.4	55.4	55.4	47	35.5	8	16	90	0.00	29.815 
12:00	55.6	55.6	55.6	47	35.7	6	14	112	0.00	29.822 
12:05	55.9	55.9	55.9	46	35.4	6	15	112	0.00	29.822 
12:10	56.3	56.3	56.3	45	35.2	6	15	112	0.00	29.822 
12:15	56.9	56.9	56.9	47	36.9	6	14	112	0.00	29.826 
12:20	57.0	57.0	57.0	42	34.1	6	16	90	0.00	29.826 
12:25	56.9	56.9	56.9	42	34.0	10	18	112	0.00	29.826 
12:30	57.2	57.2	57.2	39	32.5	7	16	112	0.00	29.833 
12:35	57.3	57.3	57.3	40	33.2	9	18	112	0.00	29.833 
12:40	57.5	57.5	57.5	39	32.7	6	16	112	0.00	29.833 
12:45	57.6	57.6	57.6	40	33.5	6	13	112	0.00	29.836 
12:50	58.0	58.0	58.0	38	32.5	6	17	90	0.00	29.836 
12:55	58.1	58.1	58.1	40	33.9	7	21	112	0.00	29.836 
13:00	58.1	58.1	58.1	39	33.3	8	17	112	0.00	29.838 
13:05	58.0	58.0	58.0	39	33.2	8	21	112	0.00	29.838 
13:10	58.3	58.3	58.3	38	32.8	6	14	112	0.00	29.838 
13:15	58.3	58.3	58.3	37	32.1	7	20	90	0.00	29.838 
13:20	58.1	58.1	58.1	41	34.5	8	15	112	0.00	29.838 
13:25	58.4	58.4	58.4	38	32.9	7	18	112	0.00	29.838 
13:30	58.3	58.3	58.3	38	32.8	6	12	112	0.00	29.838 
13:35	58.3	58.3	58.3	39	33.5	7	16	112	0.00	29.838 
13:40	58.3	58.3	58.3	39	33.5	6	20	112	0.00	29.838 
13:45	58.4	58.4	58.4	39	33.5	7	13	112	0.00	29.850 
13:50	58.3	58.3	58.3	36	31.5	9	20	112	0.00	29.850 
13:55	58.3	58.3	58.3	36	31.5	7	19	112	0.00	29.850 
14:00	58.4	58.4	58.4	39	33.5	7	13	112	0.00	29.851 
14:05	58.6	58.6	58.6	40	34.4	7	16	112	0.00	29.851 
14:10	58.6	58.6	58.6	38	33.1	8	15	112	0.00	29.851 
14:15	58.6	58.6	58.6	40	34.4	7	15	112	0.00	29.852 
14:20	58.9	58.9	58.9	39	34.0	5	12	90	0.00	29.852 
14:25	58.9	58.9	58.9	36	32.0	8	14	112	0.00	29.852 
14:30	59.0	59.0	59.0	38	33.4	8	17	90	0.00	29.854 
14:35	59.2	59.2	59.2	39	34.3	8	17	112	0.00	29.854 
14:40	59.2	59.2	59.2	37	32.9	9	16	112	0.00	29.854 
14:45	59.5	59.5	59.5	39	34.5	7	15	112	0.00	29.856 
14:50	59.5	59.5	59.5	39	34.5	9	20	112	0.00	29.856 
14:55	59.3	59.3	59.3	38	33.7	6	15	112	0.00	29.856 
15:00	59.6	59.6	59.6	39	34.6	8	18	112	0.00	29.852 
15:05	59.6	59.6	59.6	36	32.6	8	14	90	0.00	29.852 
15:10	59.5	59.5	59.5	39	34.5	9	17	112	0.00	29.852 
15:15	59.5	59.5	59.5	38	33.9	8	18	112	0.00	29.862 
15:20	59.5	59.5	59.5	35	31.8	8	15	112	0.00	29.862 
15:25	59.6	59.6	59.6	35	31.9	9	16	112	0.00	29.862 
15:30	59.8	59.8	59.8	39	34.8	6	16	112	0.00	29.867 
15:35	60.1	60.1	60.1	35	32.4	7	17	112	0.00	29.867 
15:40	59.9	59.9	59.9	36	32.9	8	13	112	0.00	29.867 
15:45	60.4	60.4	60.4	40	36.0	5	13	112	0.00	29.867 
15:50	60.5	60.5	60.5	37	34.1	5	15	112	0.00	29.867 
15:55	60.5	60.5	60.5	40	36.1	6	17	112	0.00	29.867 
16:00	60.4	60.4	60.4	40	36.0	6	14	112	0.00	29.868 
16:05	61.0	61.0	61.0	37	34.5	5	12	90	0.00	29.868 
16:10	60.9	60.9	60.9	35	33.1	5	11	112	0.00	29.868 
16:15	60.9	60.9	60.9	38	35.1	5	14	112	0.00	29.867 
16:20	60.7	60.7	60.7	40	36.2	6	13	112	0.00	29.867 
16:25	60.5	60.5	60.5	37	34.1	4	11	112	0.00	29.867 
16:30	60.9	60.9	60.9	36	33.8	5	14	112	0.00	29.873 
16:35	61.0	61.0	61.0	39	35.9	5	16	90	0.00	29.873 
16:40	60.5	60.5	60.5	37	34.1	7	13	112	0.00	29.873 
16:45	60.7	60.7	60.7	39	35.6	5	11	90	0.00	29.875 
16:50	60.9	60.9	60.9	38	35.1	4	11	22	0.00	29.875 
16:55	60.9	60.9	60.9	38	35.1	5	12	112	0.00	29.875 
17:00	61.0	61.0	61.0	38	35.2	4	11	90	0.00	29.877 
17:05	60.9	60.9	60.9	38	35.1	4	11	112	0.00	29.877 
17:10	60.9	60.9	60.9	38	35.1	3	9	45	0.00	29.877 
17:15	60.9	60.9	60.9	39	35.8	5	13	112	0.00	29.881 
17:20	60.5	60.5	60.5	39	35.4	6	11	112	0.00	29.881 
17:25	60.7	60.7	60.7	39	35.6	3	7	90	0.00	29.881 
17:30	60.5	60.5	60.5	39	35.4	5	10	112	0.00	29.881 
17:35	60.1	60.1	60.1	39	35.1	7	13	112	0.00	29.881 
17:40	59.9	59.9	59.9	41	36.1	5	11	112	0.00	29.881 
17:45	60.1	60.1	60.1	40	35.7	4	13	68	0.00	29.883 
17:50	60.1	60.1	60.1	40	35.7	4	11	112	0.00	29.883 
17:55	59.9	59.9	59.9	38	34.2	4	12	45	0.00	29.883 
18:00	59.8	59.8	59.8	39	34.8	5	11	90	0.00	29.884 
18:05	59.6	59.6	59.6	41	35.9	3	6	22	0.00	29.884 
18:10	59.5	59.5	59.5	40	35.2	4	12	112	0.00	29.884 
18:15	59.3	59.3	59.3	39	34.3	5	12	112	0.00	29.887 
18:20	59.3	59.3	59.3	41	35.6	5	10	112	0.00	29.887 
18:25	59.2	59.2	59.2	39	34.3	6	12	112	0.00	29.887 
18:30	58.9	58.9	58.9	40	34.6	4	14	112	0.00	29.892 
18:35	58.9	58.9	58.9	41	35.2	5	10	112	0.00	29.892 
18:40	58.7	58.7	58.7	41	35.1	5	11	112	0.00	29.892 
18:45	58.7	58.7	58.7	41	35.1	3	9	90	0.00	29.894 
18:50	58.6	58.6	58.6	42	35.6	4	9	90	0.00	29.894 
18:55	58.4	58.4	58.4	41	34.8	5	11	112	0.00	29.894 
19:00	58.3	58.3	58.3	41	34.7	6	12	112	0.00	29.900 
19:05	58.1	58.1	58.1	40	33.9	4	10	112	0.00	29.900 
19:10	58.0	58.0	58.0	42	35.0	3	9	112	0.00	29.900 
19:15	57.8	57.8	57.8	43	35.5	3	11	112	0.00	29.899 
19:20	57.6	57.6	57.6	42	34.7	3	11	112	0.00	29.899 
19:25	57.5	57.5	57.5	43	35.2	4	10	112	0.00	29.899 
19:30	57.3	57.3	57.3	42	34.4	5	12	112	0.00	29.901 
19:35	57.2	57.2	57.2	43	34.9	5	10	112	0.00	29.901 
19:40	56.9	56.9	56.9	43	34.6	3	7	112	0.00	29.901 
19:45	56.7	56.7	56.7	43	34.5	4	9	112	0.00	29.901 
19:50	56.6	56.6	56.6	44	34.9	3	6	90	0.00	29.901 
19:55	56.3	56.3	56.3	46	35.8	3	6	90	0.00	29.901 
20:00	56.0	56.0	56.0	47	36.1	2	6	90	0.00	29.906 
20:05	55.6	55.6	55.6	49	36.7	2	5	90	0.00	29.906 
20:10	55.1	55.1	55.1	50	36.8	2	5	112	0.00	29.906 
20:15	54.8	54.8	54.8	50	36.5	2	4	112	0.00	29.912 
20:20	54.7	54.7	54.7	50	36.4	2	5	112	0.00	29.912 
20:25	54.5	54.5	54.5	50	36.2	3	6	90	0.00	29.912 
20:30	54.2	54.2	54.2	50	36.0	3	6	112	0.00	29.915 
20:35	53.9	53.9	53.9	51	36.2	2	4	112	0.00	29.915 
20:40	53.6	53.6	53.6	52	36.4	2	4	90	0.00	29.915 
20:45	53.3	53.3	53.3	53	36.6	2	4	90	0.00	29.919 
20:50	53.1	53.1	53.1	54	36.9	1	4	90	0.00	29.919 
20:55	52.9	52.9	52.9	55	37.2	2	4	90	0.00	29.919 
21:00	52.6	52.6	52.6	56	37.4	2	3	90	0.00	29.928 
21:05	52.3	52.3	52.3	56	37.1	1	3	90	0.00	29.928 
21:10	52.0	52.0	52.0	58	37.7	1	3	90	0.00	29.928 
21:15	51.7	51.7	51.7	58	37.4	1	3	112	0.00	29.933 
21:20	51.4	51.4	51.4	58	37.1	1	2	112	0.00	29.933 
21:25	51.1	51.1	51.1	60	37.7	1	2	112	0.00	29.933 
21:30	51.0	51.0	51.0	60	37.6	1	3	112	0.00	29.938 
21:35	50.7	50.7	50.7	61	37.7	1	3	112	0.00	29.938 
21:40	50.5	50.5	50.5	61	37.6	1	2	112	0.00	29.938 
21:45	50.4	50.4	50.4	61	37.5	1	3	112	0.00	29.950 
21:50	50.2	50.2	50.2	61	37.3	1	3	112	0.00	29.950 
21:55	50.1	50.1	50.1	62	37.6	1	3	112	0.00	29.950 
22:00	49.9	49.9	49.9	62	37.4	2	4	112	0.00	29.952 
22:05	49.6	49.6	49.6	63	37.5	2	3	112	0.00	29.952 
22:10	49.5	49.5	49.5	63	37.4	1	3	112	0.00	29.952 
22:15	49.2	49.2	49.2	64	37.5	1	3	112	0.00	29.952 
22:20	49.1	49.1	49.1	64	37.5	2	4	90	0.00	29.952 
22:25	48.9	48.9	48.9	64	37.3	2	4	90	0.00	29.952 
22:30	48.9	48.9	48.9	65	37.7	2	4	90	0.00	29.956 
22:35	48.9	48.9	48.9	65	37.7	3	6	90	0.00	29.956 
22:40	48.9	47.6	48.9	65	37.7	4	10	90	0.00	29.956 
22:45	48.8	48.8	48.8	67	38.3	3	6	90	0.00	29.958 
22:50	48.5	48.5	48.5	68	38.4	3	5	90	0.00	29.958 
22:55	48.3	46.9	48.3	69	38.6	4	9	112	0.00	29.958 
23:00	48.2	46.8	48.2	69	38.5	4	8	90	0.00	29.963 
23:05	48.0	48.0	48.0	70	38.7	3	5	90	0.00	29.963 
23:10	47.9	47.9	47.9	70	38.6	3	9	90	0.00	29.963 
23:15	47.6	47.6	47.6	71	38.7	3	6	112	0.00	29.961 
23:20	47.4	45.9	47.4	71	38.5	4	9	90	0.00	29.961 
23:25	47.4	47.4	47.4	71	38.5	3	6	90	0.00	29.961 
23:30	47.3	47.3	47.3	71	38.4	3	5	90	0.00	29.964 
23:35	47.1	47.1	47.1	71	38.2	2	5	90	0.00	29.964 
23:40	47.0	47.0	47.0	72	38.4	3	6	90	0.00	29.964 
23:45	46.8	46.8	46.8	72	38.3	2	5	90	0.00	29.964 
23:50	46.5	46.5	46.5	73	38.3	2	4	90	0.00	29.964 
23:55	46.4	46.4	46.4	73	38.2	1	4	90	0.00	29.964 

CoCoRaHS
IN-AL-39
A2 Web Hosting
Creative Commons License
GoDaddy
Look for:

loaded 2017-12-12 15:11:28 • last modified 2010-11-18 10:43:29
Privacy PolicyDisclaimer
• wx.awcolley.com is powered by PmWiki v.2002016 •
• all content (unless otherwise noted) © 2017 A W Colley